createdAt,value
2018-06-09T00:00:04.575Z,17.51
2018-06-09T00:02:33.485Z,17.51
2018-06-09T00:05:01.808Z,17.60
2018-06-09T00:07:29.580Z,17.60
2018-06-09T00:09:58.482Z,17.47
2018-06-09T00:12:26.802Z,17.36
2018-06-09T00:14:54.549Z,17.23
2018-06-09T00:17:23.451Z,17.23
2018-06-09T00:19:51.197Z,17.20
2018-06-09T00:22:19.517Z,17.11
2018-06-09T00:24:49.554Z,17.02
2018-06-09T00:27:19.682Z,16.86
2018-06-09T00:29:49.631Z,16.78
2018-06-09T00:32:17.671Z,16.75
2018-06-09T00:34:47.555Z,16.76
2018-06-09T00:37:19.515Z,16.75
2018-06-09T00:39:47.261Z,16.79
2018-06-09T00:42:16.185Z,16.87
2018-06-09T00:44:44.501Z,16.93
2018-06-09T00:47:12.834Z,16.93
2018-06-09T00:49:41.161Z,16.88
2018-06-09T00:52:09.481Z,16.77
2018-06-09T00:54:37.800Z,16.73
2018-06-09T00:57:06.121Z,16.70
2018-06-09T00:59:34.441Z,16.60
2018-06-09T01:02:02.754Z,16.57
2018-06-09T01:04:31.079Z,16.53
2018-06-09T01:06:59.402Z,16.48
2018-06-09T01:09:27.720Z,16.38
2018-06-09T01:11:56.059Z,16.33
2018-06-09T01:14:24.387Z,16.35
2018-06-09T01:16:52.700Z,16.32
2018-06-09T01:19:21.029Z,16.29
2018-06-09T01:21:49.346Z,16.26
2018-06-09T01:24:17.672Z,16.23
2018-06-09T01:26:45.422Z,16.24
2018-06-09T01:29:14.332Z,16.34
2018-06-09T01:31:42.073Z,16.27
2018-06-09T01:34:10.985Z,16.16
2018-06-09T01:36:39.294Z,16.10
2018-06-09T01:39:07.617Z,16.08
2018-06-09T01:41:35.943Z,16.08
2018-06-09T01:44:04.259Z,16.22
2018-06-09T01:46:31.998Z,16.26
2018-06-09T01:49:00.902Z,16.17
2018-06-09T01:51:29.649Z,16.01
2018-06-09T01:53:57.974Z,15.93
2018-06-09T01:56:26.292Z,15.89
2018-06-09T01:58:54.640Z,15.89
2018-06-09T02:01:22.968Z,15.94
2018-06-09T02:03:50.696Z,16.01
2018-06-09T02:06:19.016Z,16.05
2018-06-09T02:08:47.330Z,15.99
2018-06-09T02:11:16.562Z,15.95
2018-06-09T02:13:44.870Z,15.88
2018-06-09T02:16:13.190Z,15.86
2018-06-09T02:18:41.515Z,15.85
2018-06-09T02:21:09.830Z,15.73
2018-06-09T02:23:37.577Z,15.64
2018-06-09T02:26:06.483Z,15.54
2018-06-09T02:28:34.231Z,15.48
2018-06-09T02:31:03.129Z,15.52
2018-06-09T02:33:31.459Z,15.63
2018-06-09T02:35:59.202Z,15.65
2018-06-09T02:38:28.094Z,15.56
2018-06-09T02:40:56.415Z,15.52
2018-06-09T02:43:24.157Z,15.44
2018-06-09T02:45:52.528Z,15.40
2018-06-09T02:48:21.428Z,15.34
2018-06-09T02:50:49.760Z,15.34
2018-06-09T02:53:18.145Z,15.37
2018-06-09T02:55:46.473Z,15.49
2018-06-09T02:58:14.808Z,15.64
2018-06-09T03:00:43.130Z,15.79
2018-06-09T03:03:10.882Z,15.96
2018-06-09T03:05:39.783Z,16.07
2018-06-09T03:08:08.102Z,16.09
2018-06-09T03:10:36.436Z,16.07
2018-06-09T03:13:04.781Z,16.09
2018-06-09T03:15:33.130Z,16.05
2018-06-09T03:18:00.858Z,16.06
2018-06-09T03:20:29.765Z,16.07
2018-06-09T03:22:58.091Z,16.12
2018-06-09T03:25:26.415Z,16.17
2018-06-09T03:27:54.750Z,16.23
2018-06-09T03:30:22.490Z,16.38
2018-06-09T03:32:51.395Z,16.46
2018-06-09T03:35:19.128Z,16.55
2018-06-09T03:37:47.442Z,16.69
2018-06-09T03:40:16.349Z,16.83
2018-06-09T03:42:44.684Z,16.88
2018-06-09T03:45:13.000Z,17.02
2018-06-09T03:47:41.329Z,17.25
2018-06-09T03:50:09.641Z,17.47
2018-06-09T03:52:37.967Z,17.68
2018-06-09T03:55:06.343Z,17.87
2018-06-09T03:57:34.660Z,18.00
2018-06-09T04:00:02.978Z,18.13
2018-06-09T04:02:31.306Z,18.28
2018-06-09T04:04:59.867Z,18.37
2018-06-09T04:07:27.977Z,18.34
2018-06-09T04:09:56.306Z,18.25
2018-06-09T04:12:24.637Z,18.15
2018-06-09T04:14:52.958Z,18.04
2018-06-09T04:17:20.700Z,18.02
2018-06-09T04:19:49.027Z,18.03
2018-06-09T04:22:17.355Z,18.05
2018-06-09T04:24:46.291Z,18.20
2018-06-09T04:27:14.618Z,18.39
2018-06-09T04:29:42.949Z,18.76
2018-06-09T04:32:11.286Z,19.15
2018-06-09T04:34:39.827Z,19.31
2018-06-09T04:37:07.945Z,19.43
2018-06-09T04:39:35.695Z,19.49
2018-06-09T04:42:04.602Z,19.55
2018-06-09T04:44:32.926Z,19.64
2018-06-09T04:47:00.674Z,19.71
2018-06-09T04:49:28.985Z,19.78
2018-06-09T04:51:57.886Z,19.85
2018-06-09T04:54:26.203Z,19.91
2018-06-09T04:56:53.997Z,19.98
2018-06-09T04:59:22.929Z,20.03
2018-06-09T05:01:51.249Z,20.12
2018-06-09T05:04:19.566Z,20.18
2018-06-09T05:06:47.917Z,20.25
2018-06-09T05:09:16.228Z,20.33
2018-06-09T05:11:44.552Z,20.37
2018-06-09T05:14:12.289Z,20.45
2018-06-09T05:16:41.201Z,20.53
2018-06-09T05:19:09.522Z,20.60
2018-06-09T05:21:38.015Z,20.64
2018-06-09T05:24:06.911Z,20.72
2018-06-09T05:26:35.240Z,20.77
2018-06-09T05:29:03.565Z,20.81
2018-06-09T05:31:31.883Z,20.82
2018-06-09T05:34:00.221Z,20.85
2018-06-09T05:36:27.970Z,20.93
2018-06-09T05:38:56.292Z,20.99
2018-06-09T05:41:25.236Z,21.02
2018-06-09T05:43:53.559Z,21.06
2018-06-09T05:46:21.881Z,21.09
2018-06-09T05:48:49.644Z,21.15
2018-06-09T05:51:18.547Z,21.16
2018-06-09T05:53:46.871Z,21.17
2018-06-09T05:56:15.197Z,21.17
2018-06-09T05:58:43.613Z,21.24
2018-06-09T06:01:11.942Z,21.32
2018-06-09T06:03:39.879Z,21.39
2018-06-09T06:06:08.610Z,21.44
2018-06-09T06:08:36.405Z,21.51
2018-06-09T06:11:04.689Z,21.59
2018-06-09T06:13:33.623Z,21.63
2018-06-09T06:16:01.935Z,21.70
2018-06-09T06:18:30.267Z,21.76
2018-06-09T06:20:58.013Z,21.80
2018-06-09T06:23:26.937Z,21.87
2018-06-09T06:25:55.245Z,21.89
2018-06-09T06:28:23.046Z,21.91
2018-06-09T06:30:51.937Z,21.94
2018-06-09T06:33:20.247Z,21.97
2018-06-09T06:35:48.801Z,22.00
2018-06-09T06:38:16.362Z,22.02
2018-06-09T06:40:44.703Z,22.04
2018-06-09T06:43:13.027Z,22.03
2018-06-09T06:45:41.994Z,22.01
2018-06-09T06:48:10.316Z,22.01
2018-06-09T06:50:38.652Z,22.01
2018-06-09T06:53:06.988Z,22.03
2018-06-09T06:55:35.306Z,22.06
2018-06-09T06:58:03.702Z,22.09
2018-06-09T07:00:32.092Z,22.10
2018-06-09T07:02:59.842Z,22.14
2018-06-09T07:05:28.758Z,22.15
2018-06-09T07:07:57.105Z,22.19
2018-06-09T07:10:25.384Z,22.21
2018-06-09T07:12:53.702Z,22.25
2018-06-09T07:15:22.030Z,22.29
2018-06-09T07:17:50.356Z,22.28
2018-06-09T07:20:18.691Z,22.25
2018-06-09T07:22:47.012Z,22.21
2018-06-09T07:25:15.342Z,22.20
2018-06-09T07:27:43.668Z,22.19
2018-06-09T07:30:12.005Z,22.21
2018-06-09T07:32:40.331Z,22.24
2018-06-09T07:35:08.131Z,22.24
2018-06-09T07:37:36.790Z,22.28
2018-06-09T07:40:05.304Z,22.33
2018-06-09T07:42:33.624Z,22.37
2018-06-09T07:45:01.953Z,22.41
2018-06-09T07:47:30.105Z,22.43
2018-06-09T07:49:58.054Z,22.45
2018-06-09T07:52:26.376Z,22.46
2018-06-09T07:54:56.877Z,22.45
2018-06-09T07:57:23.629Z,22.49
2018-06-09T07:59:51.477Z,22.49
2018-06-09T08:02:20.954Z,22.50
2018-06-09T08:04:49.272Z,22.48
2018-06-09T08:07:17.607Z,22.48
2018-06-09T08:09:46.153Z,22.53
2018-06-09T08:12:14.264Z,22.61
2018-06-09T08:14:42.595Z,22.64
2018-06-09T08:17:10.348Z,22.66
2018-06-09T08:19:39.254Z,22.67
2018-06-09T08:22:07.577Z,22.70
2018-06-09T08:24:35.904Z,22.73
2018-06-09T08:27:04.457Z,22.76
2018-06-09T08:29:32.573Z,22.80
2018-06-09T08:32:00.909Z,22.81
2018-06-09T08:34:29.461Z,22.82
2018-06-09T08:36:56.980Z,22.84
2018-06-09T08:39:25.897Z,22.86
2018-06-09T08:41:54.256Z,22.87
2018-06-09T08:44:22.005Z,22.89
2018-06-09T08:46:50.907Z,22.90
2018-06-09T08:49:20.279Z,22.92
2018-06-09T08:51:47.596Z,22.95
2018-06-09T08:54:15.928Z,22.99
2018-06-09T08:56:44.273Z,23.02
2018-06-09T08:59:12.592Z,23.04
2018-06-09T09:01:40.348Z,23.07
2018-06-09T09:04:09.286Z,23.09
2018-06-09T09:06:37.613Z,23.10
2018-06-09T09:09:05.941Z,23.13
2018-06-09T09:11:34.283Z,23.16
2018-06-09T09:14:02.612Z,23.18
2018-06-09T09:16:30.389Z,23.22
2018-06-09T09:18:59.264Z,23.26
2018-06-09T09:21:27.590Z,23.31
2018-06-09T09:23:56.863Z,23.37
2018-06-09T09:26:25.197Z,23.43
2018-06-09T09:28:53.528Z,23.49
2018-06-09T09:31:21.852Z,23.53
2018-06-09T09:33:50.181Z,23.53
2018-06-09T09:36:17.934Z,23.58
2018-06-09T09:38:47.091Z,23.65
2018-06-09T09:41:15.429Z,23.68
2018-06-09T09:43:43.176Z,23.73
2018-06-09T09:46:12.098Z,23.79
2018-06-09T09:48:39.834Z,23.85
2018-06-09T09:51:08.772Z,23.85
2018-06-09T09:53:36.612Z,23.88
2018-06-09T09:56:04.998Z,23.88
2018-06-09T09:58:33.840Z,23.88
2018-06-09T10:01:02.384Z,23.92
2018-06-09T10:03:30.932Z,23.96
2018-06-09T10:05:59.113Z,24.01
2018-06-09T10:08:27.425Z,24.08
2018-06-09T10:10:55.745Z,24.14
2018-06-09T10:13:24.063Z,24.19
2018-06-09T10:15:51.972Z,24.27
2018-06-09T10:18:22.119Z,24.32
2018-06-09T10:20:50.448Z,24.37
2018-06-09T10:23:18.774Z,24.42
2018-06-09T10:25:47.091Z,24.46
2018-06-09T10:28:15.418Z,24.50
2018-06-09T10:30:43.776Z,24.48
2018-06-09T10:33:29.092Z,24.47
2018-06-09T10:35:57.309Z,24.50
2018-06-09T10:38:25.649Z,24.50
2018-06-09T10:40:54.572Z,24.52
2018-06-09T10:43:22.292Z,24.54
2018-06-09T10:45:51.201Z,24.57
2018-06-09T10:48:19.532Z,24.63
2018-06-09T10:50:47.854Z,24.68
2018-06-09T10:53:15.608Z,24.69
2018-06-09T10:55:45.560Z,24.73
2018-06-09T10:58:13.877Z,24.79
2018-06-09T11:00:42.273Z,24.83
2018-06-09T11:03:10.048Z,24.89
2018-06-09T11:05:38.362Z,24.96
2018-06-09T11:08:06.760Z,25.00
2018-06-09T11:10:35.657Z,25.06
2018-06-09T11:13:03.976Z,25.13
2018-06-09T11:15:32.657Z,25.22
2018-06-09T11:18:01.909Z,25.29
2018-06-09T11:20:30.578Z,25.36
2018-06-09T11:22:58.899Z,25.38
2018-06-09T11:25:31.734Z,25.47
2018-06-09T11:28:00.056Z,25.55
2018-06-09T11:30:32.416Z,25.65
2018-06-09T11:32:56.392Z,25.78
2018-06-09T11:35:25.377Z,25.91
2018-06-09T11:37:53.133Z,25.99
2018-06-09T11:40:23.397Z,26.07
2018-06-09T11:42:51.818Z,26.14
2018-06-09T11:45:19.692Z,26.19
2018-06-09T11:47:50.212Z,26.28
2018-06-09T11:50:24.158Z,26.41
2018-06-09T11:52:52.671Z,26.54
2018-06-09T11:55:21.349Z,26.69
2018-06-09T11:57:49.644Z,26.89
2018-06-09T12:00:18.032Z,27.07
2018-06-09T12:02:45.730Z,27.23
2018-06-09T12:05:14.290Z,27.28
2018-06-09T12:07:44.000Z,27.30
2018-06-09T12:10:12.435Z,27.33
2018-06-09T12:12:41.502Z,27.40
2018-06-09T12:15:09.826Z,27.49
2018-06-09T12:17:38.166Z,27.58
2018-06-09T12:20:06.484Z,27.64
2018-06-09T12:22:34.806Z,27.66
2018-06-09T12:25:03.188Z,27.75
2018-06-09T12:27:31.463Z,27.86
2018-06-09T12:29:59.789Z,27.93
2018-06-09T12:32:28.240Z,28.12
2018-06-09T12:34:55.944Z,28.22
2018-06-09T12:37:24.848Z,28.30
2018-06-09T12:39:52.585Z,28.38
2018-06-09T12:42:24.865Z,28.42
2018-06-09T12:44:53.712Z,28.52
2018-06-09T12:47:22.044Z,28.57
2018-06-09T12:49:50.369Z,28.59
2018-06-09T12:52:18.686Z,28.63
2018-06-09T12:54:47.027Z,28.79
2018-06-09T12:57:14.759Z,28.95
2018-06-09T12:59:43.650Z,29.06
2018-06-09T13:02:11.974Z,29.20
2018-06-09T13:04:40.294Z,29.36
2018-06-09T13:07:08.608Z,29.57
2018-06-09T13:09:36.417Z,29.76
2018-06-09T13:12:05.328Z,29.91
2018-06-09T13:14:33.636Z,30.03
2018-06-09T13:17:01.380Z,30.13
2018-06-09T13:19:30.294Z,30.23
2018-06-09T13:21:58.615Z,30.39
2018-06-09T13:24:26.934Z,30.52
2018-06-09T13:26:55.258Z,30.66
2018-06-09T13:29:23.571Z,30.79
2018-06-09T13:31:51.893Z,30.91
2018-06-09T13:34:20.210Z,31.08
2018-06-09T13:36:47.953Z,31.25
2018-06-09T13:39:17.173Z,31.48
2018-06-09T13:41:45.490Z,31.69
2018-06-09T13:44:13.827Z,31.81
2018-06-09T13:46:42.161Z,31.85
2018-06-09T13:49:09.885Z,31.71
2018-06-09T13:51:38.781Z,31.68
2018-06-09T13:54:07.121Z,31.69
2018-06-09T13:56:35.452Z,31.63
2018-06-09T13:59:03.761Z,31.63
2018-06-09T14:01:32.121Z,31.69
2018-06-09T14:04:00.430Z,31.83
2018-06-09T14:06:28.740Z,31.92
2018-06-09T14:08:57.054Z,31.96
2018-06-09T14:11:25.376Z,31.97
2018-06-09T14:13:53.751Z,32.08
2018-06-09T14:16:21.490Z,32.16
2018-06-09T14:18:50.379Z,32.06
2018-06-09T14:21:18.300Z,31.92
2018-06-09T14:23:47.017Z,31.84
2018-06-09T14:26:16.038Z,31.73
2018-06-09T14:28:44.357Z,31.70
2018-06-09T14:31:12.691Z,31.67
2018-06-09T14:33:41.035Z,31.79
2018-06-09T14:36:08.785Z,31.83
2018-06-09T14:38:37.694Z,31.78
2018-06-09T14:41:05.438Z,31.89
2018-06-09T14:43:34.350Z,32.03
2018-06-09T14:46:02.707Z,32.19
2018-06-09T14:48:31.037Z,32.37
2018-06-09T14:50:59.370Z,32.51
2018-06-09T14:53:27.690Z,32.70
2018-06-09T14:55:56.008Z,32.76
2018-06-09T14:58:24.339Z,32.85
2018-06-09T15:00:52.667Z,32.80
2018-06-09T15:03:20.980Z,32.82
2018-06-09T15:05:49.314Z,32.87
2018-06-09T15:08:17.634Z,32.71
2018-06-09T15:10:45.965Z,32.47
2018-06-09T15:13:14.309Z,32.40
2018-06-09T15:15:42.722Z,32.47
2018-06-09T15:18:11.037Z,32.47
2018-06-09T15:20:38.777Z,32.67
2018-06-09T15:23:07.172Z,32.83
2018-06-09T15:25:36.101Z,32.99
2018-06-09T15:28:04.432Z,33.17
2018-06-09T15:30:32.762Z,33.18
2018-06-09T15:33:01.311Z,33.16
2018-06-09T15:35:29.412Z,33.28
2018-06-09T15:37:57.156Z,33.43
2018-06-09T15:40:26.057Z,33.51
2018-06-09T15:42:53.829Z,33.48
2018-06-09T15:45:22.739Z,33.01
2018-06-09T15:47:51.077Z,32.93
2018-06-09T15:50:19.388Z,32.93
2018-06-09T15:52:47.728Z,32.90
2018-06-09T15:55:16.076Z,32.98
2018-06-09T15:57:44.435Z,33.07
2018-06-09T16:00:12.191Z,32.79
2018-06-09T16:02:42.175Z,32.68
2018-06-09T16:05:10.297Z,32.59
2018-06-09T16:07:38.625Z,32.41
2018-06-09T16:10:08.114Z,32.35
2018-06-09T16:12:37.026Z,32.54
2018-06-09T16:15:05.349Z,32.68
2018-06-09T16:17:33.737Z,32.78
2018-06-09T16:20:01.477Z,32.65
2018-06-09T16:22:30.385Z,32.33
2018-06-09T16:24:58.708Z,32.09
2018-06-09T16:27:27.095Z,32.07
2018-06-09T16:29:55.447Z,32.26
2018-06-09T20:45:16.467Z,20.21
2018-06-09T20:47:45.103Z,20.10
2018-06-09T20:50:13.425Z,20.14
2018-06-09T20:52:41.759Z,20.20
2018-06-09T20:55:10.075Z,20.30
2018-06-09T20:57:39.078Z,20.31
2018-06-09T21:00:07.388Z,20.29
2018-06-09T21:02:35.712Z,20.34
2018-06-09T21:05:04.049Z,20.37
2018-06-09T21:07:32.677Z,20.33
2018-06-09T21:10:01.610Z,20.27
2018-06-09T21:12:29.399Z,20.16
2018-06-09T21:14:58.321Z,20.09
2018-06-09T21:17:26.660Z,20.19
2018-06-09T21:19:54.988Z,20.32
2018-06-09T21:22:22.739Z,20.33
2018-06-09T21:24:51.880Z,20.29
2018-06-09T21:27:20.007Z,20.30
2018-06-09T21:29:48.347Z,20.28
2018-06-09T21:32:16.128Z,20.32
2018-06-09T21:34:57.777Z,20.35
2018-06-09T21:37:25.512Z,20.24
2018-06-09T21:39:54.316Z,20.16
2018-06-09T21:42:22.665Z,20.19
2018-06-09T21:44:52.054Z,20.11
2018-06-09T21:47:20.405Z,20.09
2018-06-09T21:49:48.746Z,20.08
2018-06-09T21:52:17.067Z,19.96
2018-06-09T21:54:45.787Z,19.81
2018-06-09T21:57:15.089Z,19.62
2018-06-09T21:59:43.405Z,19.49
2018-06-09T22:02:11.735Z,19.51
2018-06-09T22:04:40.116Z,19.58
2018-06-09T22:07:08.385Z,19.56
2018-06-09T22:09:36.740Z,19.52
2018-06-09T22:12:05.057Z,19.50
2018-06-09T22:14:32.801Z,19.43
2018-06-09T22:17:01.796Z,19.37
2018-06-09T22:19:30.110Z,19.32
2018-06-09T22:21:58.453Z,19.34
2018-06-09T22:24:26.203Z,19.42
2018-06-09T22:26:54.526Z,19.48
2018-06-09T22:29:22.901Z,19.57
2018-06-09T22:31:51.793Z,19.66
2018-06-09T22:34:20.114Z,19.53
2018-06-09T22:36:48.436Z,19.37
2018-06-09T22:39:16.764Z,19.24
2018-06-09T22:41:45.096Z,19.13
2018-06-09T22:44:32.568Z,19.09
2018-06-09T22:47:00.851Z,19.15
2018-06-09T22:49:29.232Z,19.12
2018-06-09T22:51:56.961Z,19.15
2018-06-09T22:54:25.874Z,19.10
2018-06-09T22:56:55.384Z,18.91
2018-06-09T22:59:23.707Z,18.77
2018-06-09T23:01:52.036Z,18.68
2018-06-09T23:04:20.800Z,18.57
2018-06-09T23:06:50.155Z,18.57
2018-06-09T23:09:18.627Z,18.72
2018-06-09T23:11:46.914Z,18.83
2018-06-09T23:14:15.242Z,18.67
2018-06-09T23:16:43.561Z,18.54
2018-06-09T23:19:11.885Z,18.47
2018-06-09T23:21:39.613Z,18.38
2018-06-09T23:24:08.503Z,18.27
2018-06-09T23:26:36.824Z,18.25
2018-06-09T23:29:05.141Z,18.23
2018-06-09T23:31:33.462Z,18.18
2018-06-09T23:34:01.788Z,18.17
2018-06-09T23:36:30.106Z,18.07
2018-06-09T23:38:58.422Z,17.95
2018-06-09T23:41:26.738Z,17.83
2018-06-09T23:43:54.482Z,17.66
2018-06-09T23:46:23.375Z,17.61
2018-06-09T23:48:51.692Z,17.66
2018-06-09T23:51:19.484Z,17.73
2018-06-09T23:53:47.820Z,17.82
2018-06-09T23:56:16.148Z,17.84
2018-06-09T23:58:45.042Z,17.84
